Airfield :
LOGIN :

Register | Disclaimer

   EN    FR    IT 

 










Legend :    VFR   Marginal VFR   IFR   Intensive IFR   Very Intensive IFR
Visi :
Ceiling :
>= 8 km
>= 3000ft
5 to 8 km
1000 to 3000 ft
1500m to 5 km
500 to 1000 ft
800 to 1500m
200 to 500 ft
< 800m
< 200 ft
Symbols :   Thunderstorms  Fog  Heavy snow  Heavy precipitations  Wind > 20 kt
SIGMETs :     Misc.  Thunderstorms  Icing  Turbulence  Mountain Waves  Volcanic Ashes






- Airport Elevation : 47 ft
- IATA code : BMA


ESSB - Stockholm-Bromma

CURRENT METAR :
  • 240450Z 14006KT CAVOK 02/01 Q1010

EXPIRED METARs :
  • 240420Z 14004KT CAVOK 02/00 Q1010
  • 240350Z AUTO 12003KT 9999 OVC074/// 01/M00 Q1010
  • 240320Z AUTO VRB02KT 9999 OVC072/// 01/M01 Q1010
  • 240250Z AUTO 00000KT 9999 OVC072/// 00/M01 Q1010
  • 240220Z AUTO VRB02KT 9999 OVC074/// 01/M01 Q1010
  • 240150Z AUTO 13004KT 9999 OVC070/// 00/M01 Q1010
  • 240120Z AUTO 13003KT 9999 BKN074/// M01/M02 Q1010
  • 240050Z AUTO 13003KT 9999 BKN072/// M00/M01 Q1010
  • 240020Z AUTO 00000KT 9999 BKN066/// 00/M01 Q1011

TAF TAF ESSB
Valid from the 24 at 03:00 until the 24 at 12:00 UTC


240230Z 2403/2412 19008KT CAVOK
TEMPO 2408/2410 SCT050TCU
TEMPO 2410/2412 SHRAGS SCT050CB



MET'MAP, your aeronautical weather chart ! - Copyright ORBIFLY December 2007 - Disclaimer

ORBIFLY MET'MAP TEAM :

Programming & Development : Alexandra Zaïnal
Original concept : Baudouin d'Aumeries
Technical & hardware support : Manuel Goepfert
Assistance : Marc-Olivier Méhu




SOURCES & CREDITS :

   NOAA